createdAt,value
2023-02-19T00:04:43.850Z,14.52
2023-02-19T00:09:48.958Z,8.07
2023-02-19T00:14:52.679Z,7.00
2023-02-19T00:19:56.378Z,8.13
2023-02-19T00:25:01.546Z,8.55
2023-02-19T00:30:05.692Z,12.68
2023-02-19T00:35:09.507Z,10.93
2023-02-19T00:40:14.651Z,14.35
2023-02-19T00:45:18.464Z,8.35
2023-02-19T00:50:22.196Z,7.82
2023-02-19T00:55:27.472Z,8.25
2023-02-19T01:00:31.273Z,7.28
2023-02-19T01:05:34.923Z,8.35
2023-02-19T01:10:40.020Z,6.80
2023-02-19T01:15:43.931Z,8.48
2023-02-19T01:20:47.754Z,15.50
2023-02-19T01:25:52.894Z,11.30
2023-02-19T01:30:56.680Z,15.23
2023-02-19T01:36:00.382Z,15.85
2023-02-19T01:41:07.852Z,16.25
2023-02-19T01:46:11.679Z,13.55
2023-02-19T01:51:21.305Z,16.52
2023-02-19T01:56:28.238Z,16.63
2023-02-19T02:01:32.393Z,13.80
2023-02-19T02:06:43.546Z,12.85
2023-02-19T02:11:50.953Z,18.35
2023-02-19T02:17:01.676Z,18.40
2023-02-19T02:22:14.304Z,18.52
2023-02-19T02:27:42.046Z,16.15
2023-02-19T02:32:56.255Z,17.80
2023-02-19T02:38:04.278Z,18.23
2023-02-19T02:43:08.820Z,18.83
2023-02-19T02:48:30.044Z,15.93
2023-02-19T02:53:55.878Z,18.73
2023-02-19T02:59:02.404Z,12.82
2023-02-19T03:09:56.879Z,14.48
2023-02-19T03:15:24.388Z,16.88
2023-02-19T03:20:35.421Z,9.13
2023-02-19T03:25:58.995Z,8.35
2023-02-19T03:31:16.093Z,8.40
2023-02-19T03:36:26.782Z,8.35
2023-02-19T03:41:38.078Z,10.40
2023-02-19T03:46:48.611Z,34.63
2023-02-19T03:51:59.228Z,7.60
2023-02-19T03:57:08.040Z,7.05
2023-02-19T04:02:14.890Z,6.63
2023-02-19T04:07:19.232Z,6.03
2023-02-19T04:12:25.448Z,6.47
2023-02-19T04:17:35.542Z,6.90
2023-02-19T04:22:41.292Z,11.38
2023-02-19T04:27:47.320Z,11.82
2023-02-19T04:32:50.941Z,20.35
2023-02-19T04:37:54.717Z,32.67
2023-02-19T04:42:59.765Z,34.50
2023-02-19T04:48:03.422Z,31.02
2023-02-19T04:53:07.433Z,32.47
2023-02-19T04:58:12.797Z,29.05
2023-02-19T05:03:16.475Z,39.33
2023-02-19T05:08:20.754Z,46.35
2023-02-19T05:13:25.866Z,34.78
2023-02-19T05:18:30.937Z,32.63
2023-02-19T05:23:34.585Z,26.80
2023-02-19T05:28:39.850Z,32.58
2023-02-19T05:33:44.404Z,30.63
2023-02-19T05:38:49.132Z,35.00
2023-02-19T05:43:55.019Z,25.60
2023-02-19T05:48:59.353Z,23.58
2023-02-19T05:54:03.019Z,20.98
2023-02-19T05:59:09.924Z,19.60
2023-02-19T06:04:15.607Z,16.17
2023-02-19T06:09:19.577Z,15.48
2023-02-19T06:14:24.674Z,10.23
2023-02-19T06:19:28.428Z,10.02
2023-02-19T06:24:32.207Z,7.05
2023-02-19T06:29:38.372Z,7.40
2023-02-19T06:34:42.123Z,9.07
2023-02-19T06:39:45.972Z,9.95
2023-02-19T06:44:51.030Z,10.75
2023-02-19T06:49:54.729Z,13.27
2023-02-19T06:54:58.431Z,13.20
2023-02-19T07:00:04.725Z,29.98
2023-02-19T07:05:08.612Z,36.58
2023-02-19T07:10:12.462Z,36.28
2023-02-19T07:15:17.741Z,26.60
2023-02-19T07:20:21.438Z,30.90
2023-02-19T07:25:25.111Z,29.63
2023-02-19T07:30:30.402Z,27.42
2023-02-19T07:35:34.222Z,30.92
2023-02-19T07:40:40.566Z,38.20
2023-02-19T07:45:46.675Z,28.40
2023-02-19T07:50:53.982Z,32.15
2023-02-19T07:56:02.703Z,55.33
2023-02-19T08:01:13.181Z,267.43
2023-02-19T08:06:17.516Z,372.42
2023-02-19T08:11:38.724Z,540.95
2023-02-19T08:16:51.705Z,386.95
2023-02-19T08:21:58.462Z,356.45
2023-02-19T08:27:03.813Z,228.93
2023-02-19T08:32:13.672Z,71.45
2023-02-19T08:37:19.154Z,46.53
2023-02-19T08:42:23.490Z,58.13
2023-02-19T08:47:28.716Z,133.88
2023-02-19T08:52:32.637Z,96.65
2023-02-19T08:57:37.675Z,108.07
2023-02-19T09:02:42.891Z,91.38
2023-02-19T09:07:46.580Z,74.43
2023-02-19T09:12:50.533Z,96.57
2023-02-19T09:17:55.684Z,90.72
2023-02-19T09:22:59.877Z,62.60
2023-02-19T09:28:03.730Z,42.33
2023-02-19T09:33:09.478Z,40.33
2023-02-19T09:38:13.367Z,24.42
2023-02-19T09:43:20.903Z,13.65
2023-02-19T09:48:26.006Z,15.75
2023-02-19T09:53:36.391Z,20.63
2023-02-19T09:58:48.215Z,16.73
2023-02-19T10:03:53.628Z,47.10
2023-02-19T10:33:50.716Z,7.00
2023-02-19T10:38:56.086Z,6.78
2023-02-19T10:44:13.951Z,11.70
2023-02-19T10:49:26.022Z,9.32
2023-02-19T10:54:32.845Z,11.50
2023-02-19T10:59:50.604Z,12.68
2023-02-19T11:05:16.509Z,5.70
2023-02-19T11:10:29.100Z,9.43
2023-02-19T11:15:35.981Z,95.22
2023-02-19T11:20:50.114Z,242.55
2023-02-19T11:25:56.531Z,314.60
2023-02-19T11:31:24.318Z,293.13
2023-02-19T11:36:35.166Z,125.90
2023-02-19T11:47:53.027Z,100.53
2023-02-19T11:59:39.649Z,38.72
2023-02-19T12:05:13.125Z,36.58
2023-02-19T12:10:26.300Z,36.30
2023-02-19T12:22:28.028Z,19.70
2023-02-19T12:27:48.817Z,24.55
2023-02-19T12:40:16.944Z,27.83
2023-02-19T12:45:28.215Z,14.88
2023-02-19T12:50:34.266Z,21.15
2023-02-19T12:55:43.519Z,35.75
2023-02-19T13:00:54.132Z,66.88
2023-02-19T13:06:04.820Z,120.90
2023-02-19T13:11:16.412Z,255.77
2023-02-19T13:16:23.613Z,270.27
2023-02-19T13:21:48.824Z,319.90
2023-02-19T13:27:09.181Z,494.23
2023-02-19T13:38:13.407Z,211.32
2023-02-19T13:49:45.241Z,41.88
2023-02-19T14:02:18.774Z,65.80
2023-02-19T14:07:55.724Z,59.25
2023-02-19T14:18:48.137Z,24.67
2023-02-19T14:23:54.558Z,35.50
2023-02-19T14:34:46.807Z,21.60
2023-02-19T14:45:43.715Z,29.40
2023-02-19T14:57:17.835Z,16.80
2023-02-19T15:08:24.639Z,30.58
2023-02-19T15:13:31.060Z,14.57
2023-02-19T15:24:25.418Z,26.02
2023-02-19T15:29:31.094Z,23.70
2023-02-19T15:34:38.398Z,39.65
2023-02-19T15:39:48.314Z,15.02
2023-02-19T15:56:51.763Z,23.83
2023-02-19T16:01:57.042Z,30.23
2023-02-19T16:14:24.594Z,29.67
2023-02-19T16:19:31.394Z,28.13
2023-02-19T16:30:30.935Z,23.88
2023-02-19T16:35:41.327Z,22.70
2023-02-19T16:41:08.024Z,28.00
2023-02-19T16:46:14.689Z,35.65
2023-02-19T17:04:18.007Z,50.53
2023-02-19T17:09:22.579Z,34.90
2023-02-19T17:14:26.759Z,55.53
2023-02-19T17:19:32.895Z,47.13
2023-02-19T17:24:38.480Z,34.42
2023-02-19T17:29:48.711Z,48.20
2023-02-19T17:40:49.381Z,38.22
2023-02-19T17:47:07.309Z,31.02
2023-02-19T17:59:49.963Z,58.17
2023-02-19T18:04:55.207Z,41.83
2023-02-19T18:10:02.881Z,37.42
2023-02-19T18:21:41.802Z,31.30
2023-02-19T18:26:46.601Z,33.85
2023-02-19T18:38:52.651Z,27.80
2023-02-19T18:43:57.095Z,35.28
2023-02-19T18:55:46.232Z,33.05
2023-02-19T19:00:50.895Z,29.52
2023-02-19T19:05:55.390Z,31.85
2023-02-19T19:11:00.928Z,33.50
2023-02-19T19:23:45.353Z,51.47
2023-02-19T19:28:51.353Z,41.67
2023-02-19T19:39:39.483Z,43.15
2023-02-19T19:44:50.130Z,48.30
2023-02-19T19:49:57.833Z,39.63
2023-02-19T20:01:07.545Z,45.55
2023-02-19T20:06:11.774Z,62.30
2023-02-19T20:17:02.867Z,48.75
2023-02-19T20:22:08.238Z,47.95
2023-02-19T20:39:38.091Z,77.45
2023-02-19T20:45:32.178Z,59.63
2023-02-19T20:50:37.968Z,66.57
2023-02-19T20:55:42.995Z,68.18
2023-02-19T21:00:47.234Z,65.20
2023-02-19T21:05:53.051Z,65.78
2023-02-19T21:10:57.263Z,68.63
2023-02-19T21:16:02.034Z,45.33
2023-02-19T21:21:08.990Z,55.33
2023-02-19T21:26:13.371Z,54.70
2023-02-19T21:31:17.805Z,62.53
2023-02-19T21:36:24.454Z,50.40
2023-02-19T21:41:28.661Z,50.25
2023-02-19T21:46:34.590Z,46.03
2023-02-19T21:51:42.046Z,35.40
2023-02-19T21:56:46.739Z,52.33
2023-02-19T22:01:51.457Z,34.50
2023-02-19T22:06:58.187Z,35.35
2023-02-19T22:12:02.389Z,42.75
2023-02-19T22:17:06.657Z,28.25
2023-02-19T22:22:12.229Z,29.50
2023-02-19T22:27:16.654Z,67.13
2023-02-19T22:32:20.958Z,57.92
2023-02-19T22:37:26.706Z,47.88
2023-02-19T22:42:31.039Z,46.63
2023-02-19T22:47:35.445Z,31.63
2023-02-19T22:52:41.110Z,26.50
2023-02-19T22:57:45.345Z,46.08
2023-02-19T23:02:49.678Z,23.35
2023-02-19T23:07:55.702Z,55.13
2023-02-19T23:12:59.814Z,35.97
2023-02-19T23:18:06.433Z,32.95
2023-02-19T23:23:12.029Z,36.50
2023-02-19T23:28:18.342Z,58.25
2023-02-19T23:33:22.434Z,36.97
2023-02-19T23:38:28.290Z,23.38
2023-02-19T23:43:33.064Z,23.38
2023-02-19T23:48:37.414Z,16.70
2023-02-19T23:53:43.251Z,21.55
2023-02-19T23:58:47.431Z,20.63
